Time;durP1;ratioP1;P1;durP2;ratioP2;P2;SDS_P1;SDS_P2;PMS_P1;PMS_P2;Temp;Humidity;BMP_temperature;BMP_pressure;BME280_temperature;BME280_humidity;BME280_pressure;Samples;Min_cycle;Max_cycle;Signal;HPM_P1;HPM_P2
2022/09/14 00:01:11;;;;;;;7.23;4.57;;;;;;;14.16;70.65;99700.11;1683614;85;21714;-72
2022/09/14 00:03:37;;;;;;;6.57;4.67;;;;;;;14.14;70.66;99694.23;1696101;82;21356;-72
2022/09/14 00:06:08;;;;;;;8.93;4.43;;;;;;;14.15;70.68;99693.68;1705627;82;21356;-72
2022/09/14 00:08:37;;;;;;;6.60;4.50;;;;;;;14.17;70.77;99689.61;1684050;85;21243;-71
2022/09/14 00:11:06;;;;;;;6.20;4.27;;;;;;;14.18;70.72;99687.71;1683362;85;21278;-71
2022/09/14 00:13:34;;;;;;;6.73;4.53;;;;;;;14.17;70.72;99682.89;1694508;82;21328;-72
2022/09/14 00:16:06;;;;;;;6.23;4.00;;;;;;;14.18;70.76;99685.84;1693514;82;21750;-72
2022/09/14 00:18:34;;;;;;;7.60;4.30;;;;;;;14.18;70.65;99691.22;1679136;85;21343;-71
2022/09/14 00:21:07;;;;;;;8.47;4.83;;;;;;;14.19;70.68;99689.32;1682210;84;21815;-72
2022/09/14 00:23:36;;;;;;;10.43;5.15;;;;;;;14.18;70.67;99683.16;1716446;82;21331;-73
2022/09/14 00:26:13;;;;;;;8.27;4.47;;;;;;;14.19;70.70;99687.42;1681701;83;21007;-73
2022/09/14 00:28:43;;;;;;;6.87;4.07;;;;;;;14.20;70.65;99685.53;1686480;85;21259;-73
2022/09/14 00:31:10;;;;;;;6.30;4.00;;;;;;;14.21;70.59;99685.21;1686393;83;21233;-73
2022/09/14 00:33:37;;;;;;;5.77;4.20;;;;;;;14.19;70.51;99682.05;1686822;83;21353;-73
2022/09/14 00:36:08;;;;;;;5.53;4.07;;;;;;;14.21;70.53;99680.39;1686375;84;21591;-73
2022/09/14 00:38:35;;;;;;;7.20;4.67;;;;;;;14.23;70.57;99686.27;1683577;84;21516;-73
2022/09/14 00:41:03;;;;;;;7.77;4.40;;;;;;;14.26;70.78;99675.71;1710637;82;21312;-73
2022/09/14 00:43:30;;;;;;;6.57;4.47;;;;;;;14.26;70.78;99675.71;1706482;82;21432;-73
2022/09/14 00:46:01;;;;;;;7.13;3.97;;;;;;;14.29;70.48;99685.85;1691532;84;21802;-73
2022/09/14 00:48:30;;;;;;;7.70;4.33;;;;;;;14.30;70.44;99682.06;1679100;85;21337;-72
2022/09/14 00:50:56;;;;;;;5.60;4.20;;;;;;;14.34;70.47;99682.80;1686130;85;21318;-72
2022/09/14 00:53:23;;;;;;;5.93;3.93;;;;;;;14.34;70.41;99686.83;1686717;83;21468;-73
2022/09/14 00:55:52;;;;;;;5.23;3.77;;;;;;;14.28;70.36;99680.25;1691057;82;21967;-72
2022/09/14 00:58:19;;;;;;;8.33;4.70;;;;;;;14.22;70.42;99686.82;1686415;84;21362;-73
2022/09/14 01:00:47;;;;;;;5.33;3.90;;;;;;;14.21;70.70;99683.87;1686498;84;21982;-73
2022/09/14 01:03:13;;;;;;;6.03;3.87;;;;;;;14.21;70.70;99683.87;1686698;83;21319;-73
2022/09/14 01:05:52;;;;;;;5.13;4.20;;;;;;;14.22;70.79;99669.36;1697446;83;21274;-73
2022/09/14 01:08:54;;;;;;;5.27;3.73;;;;;;;14.22;70.79;99669.36;1709115;84;21824;-73
2022/09/14 01:11:46;;;;;;;5.47;4.03;;;;;;;14.25;70.68;99675.48;1705302;82;21353;-73
2022/09/14 01:14:45;;;;;;;5.00;3.50;;;;;;;14.22;70.77;99677.42;1683858;83;21466;-73
2022/09/14 01:17:29;;;;;;;6.17;3.87;;;;;;;14.21;70.85;99668.31;1653324;85;21514;-72
2022/09/14 01:20:28;;;;;;;5.60;4.00;;;;;;;14.19;70.98;99669.17;1686315;84;21714;-73
2022/09/14 01:23:07;;;;;;;6.13;3.60;;;;;;;14.22;70.94;99673.39;1753066;80;21288;-73
2022/09/14 01:26:02;;;;;;;6.90;4.27;;;;;;;14.26;70.91;99664.97;1746698;80;21852;-72
2022/09/14 01:28:50;;;;;;;8.17;4.33;;;;;;;14.26;70.81;99664.97;1746709;82;21312;-73
2022/09/14 01:31:37;;;;;;;5.50;3.50;;;;;;;14.26;70.84;99659.59;1741763;82;21320;-72
2022/09/14 01:34:18;;;;;;;7.87;4.33;;;;;;;14.26;70.83;99658.25;1743819;80;21376;-72
2022/09/14 01:36:50;;;;;;;5.80;3.97;;;;;;;14.26;70.86;99663.63;1745650;80;21262;-73
2022/09/14 01:39:18;;;;;;;6.27;4.03;;;;;;;14.26;70.91;99654.78;1721165;83;21388;-73
2022/09/14 01:41:45;;;;;;;6.67;3.80;;;;;;;14.29;71.01;99659.55;1720643;82;21298;-72
2022/09/14 01:44:20;;;;;;;4.77;3.77;;;;;;;14.31;71.02;99655.47;1728741;80;21760;-72
2022/09/14 01:46:52;;;;;;;5.47;3.60;;;;;;;14.33;71.10;99658.39;1744600;80;21196;-72
2022/09/14 01:49:36;;;;;;;5.83;3.73;;;;;;;14.33;71.09;99651.67;1745131;82;21282;-72
2022/09/14 01:52:16;;;;;;;4.93;3.93;;;;;;;14.34;71.08;99654.04;1736532;82;20976;-72
2022/09/14 01:55:00;;;;;;;6.27;3.87;;;;;;;14.39;71.06;99650.46;1728917;81;21338;-72
2022/09/14 01:57:32;;;;;;;5.03;3.67;;;;;;;14.42;71.04;99657.91;1741665;80;21305;-72
2022/09/14 02:00:04;;;;;;;5.45;3.42;;;;;;;14.49;70.99;99659.63;1745294;82;21398;-72
2022/09/14 02:02:40;;;;;;;6.10;3.77;;;;;;;14.56;70.88;99649.27;1742234;80;21078;-72
2022/09/14 02:05:17;;;;;;;5.13;3.60;;;;;;;14.56;70.88;99649.27;1743624;80;21309;-73
2022/09/14 02:07:44;;;;;;;5.13;3.37;;;;;;;14.54;70.70;99636.68;1726481;82;21450;-73
2022/09/14 02:10:13;;;;;;;4.30;3.23;;;;;;;14.54;70.60;99637.50;1744898;82;21379;-72
2022/09/14 02:12:40;;;;;;;4.50;2.93;;;;;;;14.53;70.47;99635.89;1745334;80;21305;-73
2022/09/14 02:15:09;;;;;;;4.63;3.47;;;;;;;14.53;70.48;99637.23;1744548;82;21272;-72
2022/09/14 02:17:38;;;;;;;6.17;3.80;;;;;;;14.51;70.46;99630.05;1746100;80;21945;-72
2022/09/14 02:20:07;;;;;;;5.53;3.57;;;;;;;14.57;70.55;99631.25;1743154;80;21492;-72
2022/09/14 02:22:35;;;;;;;4.60;3.50;;;;;;;14.61;70.44;99634.91;1741449;82;21329;-73
2022/09/14 02:25:04;;;;;;;6.10;3.37;;;;;;;14.62;70.38;99629.24;1746322;81;21362;-72
2022/09/14 02:27:31;;;;;;;5.73;3.80;;;;;;;14.62;70.28;99629.80;1746118;80;21415;-71
2022/09/14 02:29:57;;;;;;;3.77;3.00;;;;;;;14.56;70.16;99629.12;1744645;82;21492;-72
2022/09/14 02:33:07;;;;;;;3.70;3.00;;;;;;;14.52;70.66;99623.56;1744678;81;21424;-72
2022/09/14 02:35:45;;;;;;;6.20;3.70;;;;;;;14.52;70.66;99623.56;1744586;82;21843;-72
2022/09/14 02:38:28;;;;;;;5.87;3.53;;;;;;;14.53;70.42;99629.73;1745387;80;21351;-72
2022/09/14 02:41:28;;;;;;;4.47;3.53;;;;;;;14.56;70.54;99629.12;1746009;81;21360;-72
2022/09/14 02:44:09;;;;;;;5.20;3.43;;;;;;;14.56;70.54;99629.12;1744927;82;21415;-73
2022/09/14 02:47:00;;;;;;;6.87;3.70;;;;;;;14.54;70.47;99625.93;1745503;80;21393;-73
2022/09/14 02:49:42;;;;;;;4.83;3.20;;;;;;;14.53;70.49;99627.04;1746047;80;21434;-72
2022/09/14 02:52:38;;;;;;;4.33;3.17;;;;;;;14.56;70.45;99621.05;1744799;82;21142;-73
2022/09/14 02:55:15;;;;;;;4.53;3.20;;;;;;;14.57;70.31;99622.63;1743807;80;21537;-73
2022/09/14 02:58:06;;;;;;;5.27;3.37;;;;;;;14.56;70.29;99622.95;1744962;80;21360;-73
2022/09/14 03:00:41;;;;;;;4.20;3.45;;;;;;;14.56;70.29;99622.95;1749370;80;21384;-72
2022/09/14 03:03:10;;;;;;;5.03;3.40;;;;;;;14.58;70.29;99614.02;1747054;80;20983;-72
2022/09/14 03:05:37;;;;;;;4.67;3.40;;;;;;;14.58;70.29;99614.02;1746105;80;21400;-73
2022/09/14 03:08:03;;;;;;;3.90;3.13;;;;;;;14.60;70.21;99611.27;1745180;82;21865;-73
2022/09/14 03:10:31;;;;;;;5.57;3.50;;;;;;;14.62;69.72;99606.95;1745584;80;21904;-71
2022/09/14 03:13:00;;;;;;;4.63;3.47;;;;;;;14.62;69.72;99606.95;1750891;82;22014;-72
2022/09/14 03:15:27;;;;;;;6.60;3.27;;;;;;;14.60;70.01;99612.62;1750671;82;21458;-73
2022/09/14 03:17:55;;;;;;;4.77;3.13;;;;;;;14.57;69.97;99608.41;1750658;82;21906;-72
2022/09/14 03:20:26;;;;;;;4.20;2.80;;;;;;;14.55;69.98;99597.98;1746270;80;21459;-72
2022/09/14 03:22:52;;;;;;;3.80;3.27;;;;;;;14.53;70.06;99608.23;1745268;80;21330;-73
2022/09/14 03:25:21;;;;;;;4.13;2.97;;;;;;;14.44;69.95;99604.66;1744626;82;21307;-72
2022/09/14 03:27:53;;;;;;;4.37;3.43;;;;;;;14.44;69.95;99604.66;1749654;80;21293;-72
2022/09/14 03:30:20;;;;;;;4.72;3.22;;;;;;;14.38;70.37;99611.24;1750424;81;21446;-72
2022/09/14 03:32:46;;;;;;;5.57;3.90;;;;;;;14.36;70.48;99597.34;1748060;80;21558;-72
2022/09/14 03:35:14;;;;;;;3.70;3.00;;;;;;;14.32;70.63;99602.53;1747287;82;21417;-72
2022/09/14 03:37:42;;;;;;;4.70;3.57;;;;;;;14.31;70.79;99611.14;1712194;83;21261;-71
2022/09/14 03:40:12;;;;;;;3.83;3.13;;;;;;;14.30;70.83;99599.34;1711369;82;21380;-71
2022/09/14 03:42:46;;;;;;;5.33;3.40;;;;;;;14.30;71.10;99608.75;1710682;82;21371;-72
2022/09/14 03:45:15;;;;;;;5.40;3.97;;;;;;;14.30;71.10;99608.75;1677871;84;21471;-72
2022/09/14 03:47:45;;;;;;;5.73;3.53;;;;;;;14.37;71.29;99609.66;1741516;82;21431;-70
2022/09/14 03:50:17;;;;;;;5.23;3.30;;;;;;;14.37;71.29;99609.66;1722695;82;21585;-72
2022/09/14 03:52:43;;;;;;;4.80;3.47;;;;;;;14.42;71.03;99600.94;1691230;83;21382;-72
2022/09/14 03:55:10;;;;;;;4.03;3.13;;;;;;;14.48;70.88;99608.34;1689369;83;21870;-73
2022/09/14 03:57:37;;;;;;;6.20;3.73;;;;;;;14.50;70.76;99613.66;1665501;85;22564;-73
2022/09/14 04:00:06;;;;;;;4.90;3.50;;;;;;;14.53;70.67;99624.35;1675677;85;22737;-72
2022/09/14 04:02:35;;;;;;;4.33;3.15;;;;;;;14.57;70.58;99628.01;1672199;84;21521;-72
2022/09/14 04:05:02;;;;;;;4.70;3.20;;;;;;;14.62;70.71;99622.52;1692057;82;21082;-73
2022/09/14 04:07:29;;;;;;;4.87;3.60;;;;;;;14.63;69.76;99621.41;1691522;84;21477;-73
2022/09/14 04:09:55;;;;;;;5.40;3.60;;;;;;;14.64;69.98;99629.74;1701177;84;21427;-70
2022/09/14 04:12:23;;;;;;;5.27;3.27;;;;;;;14.64;69.98;99629.74;1704042;82;21393;-73
2022/09/14 04:14:50;;;;;;;4.57;3.23;;;;;;;14.63;69.45;99621.41;1697225;82;21329;-72
2022/09/14 04:17:17;;;;;;;5.07;3.43;;;;;;;14.63;69.33;99626.00;1694526;82;21388;-72
2022/09/14 04:19:44;;;;;;;6.23;3.10;;;;;;;14.68;69.35;99631.27;1687403;84;21487;-73
2022/09/14 04:22:10;;;;;;;5.27;3.10;;;;;;;14.68;69.35;99631.27;1690497;82;21417;-71
2022/09/14 04:24:37;;;;;;;5.17;3.17;;;;;;;14.76;69.10;99631.30;1696851;82;21417;-72
2022/09/14 04:27:03;;;;;;;4.90;3.00;;;;;;;14.86;68.95;99642.90;1691757;84;21938;-73
2022/09/14 04:29:30;;;;;;;4.67;2.80;;;;;;;14.95;67.79;99645.09;1691903;84;21449;-73
2022/09/14 04:31:57;;;;;;;4.10;2.77;;;;;;;14.95;67.79;99645.09;1695658;82;21493;-72
2022/09/14 04:34:24;;;;;;;6.70;3.20;;;;;;;15.02;67.71;99648.13;1702816;82;21490;-72
2022/09/14 04:36:51;;;;;;;5.47;3.07;;;;;;;15.16;67.42;99647.48;1696917;82;21546;-72
2022/09/14 04:39:18;;;;;;;4.63;2.77;;;;;;;15.16;67.42;99635.37;1701773;82;21575;-72
2022/09/14 04:41:44;;;;;;;4.10;2.70;;;;;;;15.23;67.59;99646.52;1683513;85;21766;-74
2022/09/14 04:44:11;;;;;;;4.53;2.40;;;;;;;15.28;67.09;99643.44;1673043;84;21941;-73
2022/09/14 04:46:41;;;;;;;4.23;2.57;;;;;;;15.20;66.48;99644.44;1681138;85;21596;-73
2022/09/14 04:49:08;;;;;;;3.90;2.50;;;;;;;15.20;66.48;99644.44;1655999;85;21707;-73
2022/09/14 04:51:35;;;;;;;3.80;2.60;;;;;;;15.21;65.95;99643.88;1655729;85;21742;-73
2022/09/14 04:54:06;;;;;;;4.60;2.37;;;;;;;15.22;65.78;99641.42;1683078;85;21747;-73
2022/09/14 04:56:34;;;;;;;6.53;2.53;;;;;;;15.27;65.32;99640.48;1702592;83;21619;-73
2022/09/14 04:59:03;;;;;;;3.30;2.30;;;;;;;15.23;64.95;99643.00;1691951;84;21774;-72
2022/09/14 05:01:34;;;;;;;4.73;2.57;;;;;;;15.15;65.02;99637.84;1678299;85;21662;-73
2022/09/14 05:04:02;;;;;;;5.05;2.50;;;;;;;15.12;65.13;99641.14;1710416;82;21903;-73
2022/09/14 05:06:32;;;;;;;3.40;2.33;;;;;;;15.17;65.19;99635.64;1683491;84;21005;-73
2022/09/14 05:09:00;;;;;;;4.30;2.43;;;;;;;15.21;65.36;99641.98;1676834;85;21767;-72
2022/09/14 05:11:30;;;;;;;4.37;2.33;;;;;;;15.32;65.30;99636.33;1698792;84;21697;-72
2022/09/14 05:13:57;;;;;;;3.07;2.20;;;;;;;15.32;65.07;99646.53;1711948;83;21730;-74
2022/09/14 05:16:32;;;;;;;4.20;2.60;;;;;;;15.29;64.89;99652.53;1710929;83;22220;-72
2022/09/14 05:19:02;;;;;;;3.53;2.77;;;;;;;15.27;65.04;99649.90;1680902;84;21710;-71
2022/09/14 05:21:31;;;;;;;5.37;2.70;;;;;;;15.22;65.05;99652.19;1696191;84;21684;-72
2022/09/14 05:24:01;;;;;;;3.30;2.60;;;;;;;15.15;64.97;99645.91;1695144;83;21716;-73
2022/09/14 05:26:30;;;;;;;3.60;2.73;;;;;;;15.11;65.10;99650.32;1720289;82;21691;-72
2022/09/14 05:28:59;;;;;;;5.30;2.77;;;;;;;15.05;65.33;99654.24;1560803;84;10000510;-72
2022/09/14 05:31:27;;;;;;;4.00;2.80;;;;;;;15.07;65.54;99666.84;1673933;83;21087;-73
2022/09/14 05:33:54;;;;;;;3.93;2.20;;;;;;;15.07;65.45;99664.15;1702715;82;21807;-72
2022/09/14 05:36:20;;;;;;;5.10;2.90;;;;;;;15.10;65.37;99668.89;1703321;82;22038;-72
2022/09/14 05:38:47;;;;;;;4.00;3.00;;;;;;;15.14;65.10;99671.78;1705646;83;22227;-73
2022/09/14 05:41:14;;;;;;;3.57;2.60;;;;;;;15.16;65.12;99663.63;1690088;83;21800;-73
2022/09/14 05:43:41;;;;;;;3.40;2.40;;;;;;;15.24;65.04;99664.23;1676461;84;21736;-73
2022/09/14 05:46:13;;;;;;;4.23;2.57;;;;;;;15.33;63.73;99674.22;1693203;84;21752;-74
2022/09/14 05:48:39;;;;;;;4.77;3.00;;;;;;;15.33;63.73;99674.22;1674877;84;21775;-72
2022/09/14 05:51:09;;;;;;;4.97;2.83;;;;;;;15.33;63.88;99663.46;1709949;83;22263;-73
2022/09/14 05:53:39;;;;;;;3.83;2.60;;;;;;;15.33;63.76;99652.70;1678611;84;23086;-73
2022/09/14 05:56:09;;;;;;;3.50;2.23;;;;;;;15.28;63.57;99664.95;1690192;84;21725;-74
2022/09/14 05:58:37;;;;;;;3.33;2.23;;;;;;;15.31;63.79;99657.61;1690192;84;21845;-74
2022/09/14 06:01:10;;;;;;;4.67;3.00;;;;;;;15.32;63.75;99664.02;1690125;84;21792;-74
2022/09/14 06:03:37;;;;;;;3.70;2.80;;;;;;;15.34;63.78;99668.55;1697669;84;22294;-73
2022/09/14 06:06:05;;;;;;;4.47;2.80;;;;;;;15.36;63.79;99673.61;1695483;84;21689;-72
2022/09/14 06:08:33;;;;;;;8.73;6.37;;;;;;;15.39;63.92;99664.36;1703685;84;21759;-74
2022/09/14 06:11:07;;;;;;;6.73;4.20;;;;;;;15.44;63.86;99658.06;1737473;82;21807;-74
2022/09/14 06:13:36;;;;;;;5.57;4.23;;;;;;;15.53;63.76;99656.20;1719402;82;21750;-74
2022/09/14 06:16:09;;;;;;;4.47;3.63;;;;;;;15.58;63.48;99653.34;1666523;86;21751;-73
2022/09/14 06:18:38;;;;;;;6.00;4.87;;;;;;;15.65;62.99;99660.41;1688920;84;22034;-74
2022/09/14 06:21:05;;;;;;;5.13;3.33;;;;;;;15.75;62.95;99649.15;1676265;84;21804;-74
2022/09/14 06:23:37;;;;;;;4.53;2.90;;;;;;;15.85;62.58;99648.85;1671880;83;21752;-75
2022/09/14 06:26:05;;;;;;;4.07;2.80;;;;;;;16.00;62.67;99643.59;1675976;84;21799;-74
2022/09/14 06:28:33;;;;;;;5.97;3.13;;;;;;;16.28;61.55;99648.11;1702088;84;21106;-75
2022/09/14 06:31:06;;;;;;;4.23;2.80;;;;;;;16.28;61.55;99648.11;1699347;82;20975;-75
2022/09/14 06:33:34;;;;;;;3.20;2.37;;;;;;;16.35;60.98;99648.41;1679075;84;22257;-74
2022/09/14 06:36:11;;;;;;;5.57;2.57;;;;;;;16.29;60.66;99645.67;1696238;84;21818;-73
2022/09/14 06:38:39;;;;;;;3.37;2.50;;;;;;;16.30;60.94;99638.59;1690054;84;21823;-73
2022/09/14 06:41:08;;;;;;;5.00;2.77;;;;;;;16.26;60.06;99644.95;1687638;83;21112;-72
2022/09/14 06:43:44;;;;;;;3.83;2.50;;;;;;;16.21;60.84;99647.79;1689188;84;21036;-73
2022/09/14 06:46:23;;;;;;;3.20;2.50;;;;;;;16.21;60.84;99647.79;1679260;84;21047;-74
2022/09/14 06:49:01;;;;;;;4.63;2.50;;;;;;;16.20;60.86;99647.00;1688652;84;21077;-75
2022/09/14 06:51:31;;;;;;;4.33;2.70;;;;;;;16.23;60.94;99642.89;1697028;82;21050;-72
2022/09/14 06:53:58;;;;;;;3.87;2.33;;;;;;;16.28;60.99;99636.77;1692212;82;21083;-75
2022/09/14 06:56:33;;;;;;;3.27;2.20;;;;;;;16.39;61.09;99637.26;1696710;82;21095;-75
2022/09/14 06:58:59;;;;;;;5.40;2.47;;;;;;;16.56;61.07;99644.53;1696855;84;21070;-75
2022/09/14 07:01:27;;;;;;;3.53;2.53;;;;;;;16.65;60.60;99638.59;1682671;82;21091;-76
2022/09/14 07:03:54;;;;;;;2.97;2.13;;;;;;;16.74;60.36;99637.20;1697633;82;21608;-77
2022/09/14 07:06:23;;;;;;;3.10;2.20;;;;;;;16.85;59.69;99634.45;1702154;84;21597;-76
2022/09/14 07:08:51;;;;;;;3.23;2.40;;;;;;;16.86;59.34;99636.03;1695911;82;21506;-76
2022/09/14 07:11:22;;;;;;;4.47;2.70;;;;;;;16.88;59.38;99628.42;1701985;84;21099;-74
2022/09/14 07:13:50;;;;;;;;;;;;;;;16.89;58.81;99632.69;1691122;84;21077;-75
2022/09/14 07:16:17;;;;;;;4.47;2.80;;;;;;;16.85;58.72;99629.84;1678332;82;20187;-74
2022/09/14 07:18:43;;;;;;;4.47;2.90;;;;;;;16.77;58.70;99627.95;1697870;84;21063;-74
2022/09/14 07:21:14;;;;;;;4.53;2.53;;;;;;;16.76;59.15;99620.98;1695546;84;21562;-75
2022/09/14 07:23:42;;;;;;;3.33;2.40;;;;;;;16.90;59.41;99622.69;1689623;84;21557;-75
2022/09/14 07:26:11;;;;;;;3.50;2.07;;;;;;;17.05;59.15;99623.52;1693628;84;21048;-75
2022/09/14 07:28:38;;;;;;;3.10;2.20;;;;;;;17.21;58.80;99625.92;1694308;84;21329;-75
2022/09/14 07:31:20;;;;;;;4.27;2.57;;;;;;;17.33;58.07;99626.01;1695125;82;21542;-75
2022/09/14 07:33:47;;;;;;;3.85;2.62;;;;;;;17.43;57.47;99617.32;1702803;84;21148;-76
2022/09/14 07:36:14;;;;;;;4.23;3.00;;;;;;;17.51;57.04;99617.28;1698196;84;20909;-74
2022/09/14 07:38:40;;;;;;;4.50;2.67;;;;;;;17.61;56.92;99619.38;1688012;83;20962;-73
2022/09/14 07:41:08;;;;;;;5.40;2.60;;;;;;;17.58;56.25;99615.42;1697510;84;21076;-74
2022/09/14 07:43:36;;;;;;;4.67;2.60;;;;;;;17.58;55.59;99614.86;1698914;84;21143;-76
2022/09/14 07:46:04;;;;;;;3.70;2.40;;;;;;;17.56;55.87;99616.30;1692631;82;21061;-77
2022/09/14 07:48:32;;;;;;;4.40;2.50;;;;;;;17.52;55.37;99612.11;1678700;84;21079;-75
2022/09/14 07:51:02;;;;;;;4.57;2.50;;;;;;;17.55;55.42;99605.27;1693555;84;21042;-78
2022/09/14 07:53:29;;;;;;;4.20;2.60;;;;;;;17.59;55.32;99605.63;1679452;83;21126;-76
2022/09/14 07:56:00;;;;;;;3.20;2.30;;;;;;;17.65;55.66;99607.59;1684761;84;21641;-75
2022/09/14 07:58:28;;;;;;;3.50;2.57;;;;;;;17.73;55.59;99604.59;1696718;84;21107;-76
2022/09/14 08:00:59;;;;;;;5.07;2.80;;;;;;;17.74;54.48;99600.80;1692056;84;21742;-76
2022/09/14 08:03:27;;;;;;;4.20;1.98;;;;;;;17.74;54.71;99600.23;1679660;84;21123;-77
2022/09/14 08:06:02;;;;;;;5.47;2.43;;;;;;;17.83;55.05;99594.00;1684236;84;21065;-76
2022/09/14 08:08:30;;;;;;;3.40;1.90;;;;;;;18.02;55.01;99598.38;1659826;84;21217;-77
2022/09/14 08:11:11;;;;;;;3.13;2.20;;;;;;;18.21;53.58;99598.70;1700844;82;21614;-75
2022/09/14 08:13:45;;;;;;;2.98;1.90;;;;;;;18.34;53.58;99584.69;1692849;84;21138;-76
2022/09/14 08:16:12;;;;;;;3.47;1.87;;;;;;;18.51;53.15;99583.72;1694015;83;21084;-75
2022/09/14 08:18:39;;;;;;;3.67;1.83;;;;;;;18.74;52.89;99578.17;1690280;84;21130;-75
2022/09/14 08:21:08;;;;;;;2.70;1.90;;;;;;;19.05;52.82;99584.19;1689491;84;21274;-76
2022/09/14 08:23:35;;;;;;;4.67;2.10;;;;;;;19.22;49.97;99585.34;1674668;85;21106;-76
2022/09/14 08:26:05;;;;;;;2.03;1.60;;;;;;;19.27;48.57;99584.31;1693634;84;21158;-77
2022/09/14 08:28:32;;;;;;;2.53;1.80;;;;;;;19.19;48.24;99575.19;1700485;82;21051;-77
2022/09/14 08:31:12;;;;;;;2.43;1.57;;;;;;;19.19;48.66;99581.95;1687856;83;21150;-76
2022/09/14 08:33:42;;;;;;;2.73;1.70;;;;;;;19.23;48.01;99573.38;1688670;84;21246;-79
2022/09/14 08:36:11;;;;;;;3.37;1.80;;;;;;;19.34;48.47;99579.91;1697474;82;21094;-77
2022/09/14 08:38:37;;;;;;;3.43;1.83;;;;;;;19.40;47.09;99575.84;1688282;84;21052;-75
2022/09/14 08:41:30;;;;;;;2.10;1.50;;;;;;;19.49;47.69;99570.31;1693824;84;21066;-76
2022/09/14 08:44:21;;;;;;;2.27;1.43;;;;;;;19.65;48.01;99563.67;1701039;82;21051;-75
2022/09/14 08:47:12;;;;;;;2.87;1.67;;;;;;;19.88;47.06;99557.96;1689114;84;21479;-75
2022/09/14 08:49:50;;;;;;;2.20;1.50;;;;;;;20.10;46.06;99559.91;1701666;84;21569;-75
2022/09/14 08:52:39;;;;;;;2.57;1.57;;;;;;;20.24;46.31;99552.76;1683289;84;21083;-75
2022/09/14 08:55:24;;;;;;;2.00;1.50;;;;;;;20.34;45.69;99551.68;1673483;85;21079;-75
2022/09/14 08:57:59;;;;;;;2.80;1.30;;;;;;;20.28;45.24;99559.06;1683279;84;21055;-75
2022/09/14 09:00:37;;;;;;;1.93;1.23;;;;;;;20.22;45.80;99563.93;1671301;84;21637;-76
2022/09/14 09:03:38;;;;;;;2.00;1.60;;;;;;;20.17;45.13;99552.53;1704908;83;21676;-74
2022/09/14 09:06:13;;;;;;;1.80;1.30;;;;;;;20.10;45.70;99559.91;1708777;83;21109;-73
2022/09/14 09:08:54;;;;;;;2.27;1.40;;;;;;;20.06;45.55;99556.31;1757469;80;21697;-76
2022/09/14 09:11:22;;;;;;;2.60;1.40;;;;;;;20.03;45.86;99551.58;1748207;80;21108;-76
2022/09/14 09:13:50;;;;;;;2.43;1.37;;;;;;;20.01;45.32;99549.80;1759748;80;21215;-75
2022/09/14 09:16:18;;;;;;;2.20;1.50;;;;;;;19.94;45.29;99546.86;1765525;80;21893;-76
2022/09/14 09:19:00;;;;;;;2.63;1.60;;;;;;;19.89;45.53;99545.98;1757912;80;21011;-75
2022/09/14 09:21:31;;;;;;;3.27;1.50;;;;;;;19.86;45.93;99540.46;1736976;80;21046;-75
2022/09/14 09:24:08;;;;;;;3.30;1.50;;;;;;;19.89;46.11;99540.56;1753236;80;38117;-76
2022/09/14 09:26:35;;;;;;;3.80;1.47;;;;;;;19.91;45.86;99538.88;1738487;80;21240;-76
2022/09/14 09:29:04;;;;;;;2.57;1.60;;;;;;;19.86;46.25;99545.31;1770572;80;21041;-76
2022/09/14 09:31:55;;;;;;;3.53;1.77;;;;;;;19.75;46.33;99542.88;1752362;80;21035;-75
2022/09/14 09:34:27;;;;;;;2.40;1.37;;;;;;;19.63;46.28;99541.52;1623092;80;9999659;-75
2022/09/14 09:36:55;;;;;;;2.17;1.37;;;;;;;19.57;46.50;99541.52;1749798;81;21540;-76
2022/09/14 09:39:24;;;;;;;2.10;1.30;;;;;;;19.52;46.82;99546.62;1744808;82;21153;-76
2022/09/14 09:42:09;;;;;;;1.97;1.13;;;;;;;19.47;47.10;99552.83;1742256;82;21024;-75
2022/09/14 09:45:01;;;;;;;2.00;1.23;;;;;;;19.47;47.45;99556.89;1720154;82;21047;-76
2022/09/14 09:47:38;;;;;;;1.70;1.30;;;;;;;19.43;47.90;99556.21;1740729;82;21031;-76
2022/09/14 09:50:15;;;;;;;2.90;1.40;;;;;;;19.38;48.25;99555.11;1747552;80;21886;-76
2022/09/14 09:52:53;;;;;;;2.77;1.50;;;;;;;19.32;48.54;99557.81;1746516;82;20935;-75
2022/09/14 09:55:22;;;;;;;2.07;1.30;;;;;;;19.22;48.89;99560.98;1748490;81;21035;-75
2022/09/14 09:57:48;;;;;;;2.67;1.60;;;;;;;19.16;48.93;99562.33;1732617;80;21043;-74
2022/09/14 10:00:25;;;;;;;3.53;1.63;;;;;;;19.04;49.40;99559.61;1748674;82;21656;-74
2022/09/14 10:02:53;;;;;;;3.50;1.50;;;;;;;18.94;49.79;99553.52;1723075;81;21200;-77
2022/09/14 10:05:24;;;;;;;2.50;1.60;;;;;;;18.90;50.09;99558.02;1723580;82;21051;-75
2022/09/14 10:08:01;;;;;;;2.47;1.60;;;;;;;18.87;50.12;99561.41;1741770;82;21031;-75
2022/09/14 10:10:41;;;;;;;2.13;1.60;;;;;;;18.84;50.44;99557.23;1728429;82;21039;-75
2022/09/14 10:13:33;;;;;;;2.90;1.63;;;;;;;18.82;50.66;99555.41;1736999;80;21089;-74
2022/09/14 10:16:15;;;;;;;4.23;1.90;;;;;;;18.79;50.89;99547.97;1740490;82;21164;-76
2022/09/14 10:18:51;;;;;;;2.83;1.90;;;;;;;18.79;50.87;99549.31;1718748;83;21087;-76
2022/09/14 10:21:20;;;;;;;2.70;1.70;;;;;;;18.79;51.00;99553.38;1746057;80;21048;-77
2022/09/14 10:24:08;;;;;;;2.13;1.63;;;;;;;18.80;51.10;99542.23;1745505;81;21063;-75
2022/09/14 10:26:35;;;;;;;2.63;1.80;;;;;;;18.84;51.27;99544.48;1731303;80;21087;-77
2022/09/14 10:29:34;;;;;;;3.33;1.80;;;;;;;18.87;51.18;99549.80;1746225;80;21698;-75
2022/09/14 10:32:16;;;;;;;2.53;1.70;;;;;;;18.88;51.24;99554.86;1706228;82;21332;-75
2022/09/14 10:34:44;;;;;;;2.90;1.97;;;;;;;18.90;51.30;99558.02;1674396;84;21126;-75
2022/09/14 10:37:19;;;;;;;3.37;1.80;;;;;;;18.92;51.34;99549.02;1692670;82;20999;-74
2022/09/14 10:40:00;;;;;;;2.83;1.90;;;;;;;18.95;51.29;99553.76;1706460;78;20981;-75
2022/09/14 10:42:53;;;;;;;2.60;1.93;;;;;;;19.02;51.54;99555.09;1672891;83;21140;-75
2022/09/14 10:45:30;;;;;;;3.00;1.87;;;;;;;19.09;51.79;99549.36;1682227;85;21452;-75
2022/09/14 10:48:29;;;;;;;2.90;1.90;;;;;;;19.20;51.97;99549.13;1693075;83;21090;-75
2022/09/14 10:51:29;;;;;;;3.00;1.90;;;;;;;19.27;52.02;99548.55;1700829;82;21258;-74
2022/09/14 10:54:25;;;;;;;3.20;2.23;;;;;;;19.33;52.13;99547.77;1697832;83;21051;-75
2022/09/14 10:57:12;;;;;;;3.37;2.10;;;;;;;19.37;51.94;99537.83;1689049;83;21827;-76
2022/09/14 11:00:08;;;;;;;3.40;2.20;;;;;;;19.44;51.99;99541.53;1689019;84;21051;-76
2022/09/14 11:02:47;;;;;;;3.40;2.40;;;;;;;19.54;51.90;99543.55;1749522;81;21054;-76
2022/09/14 11:05:27;;;;;;;5.37;2.72;;;;;;;19.65;51.83;99547.42;1732111;82;21051;-77
2022/09/14 11:08:06;;;;;;;3.40;2.13;;;;;;;19.73;51.70;99544.34;1729916;82;21039;-76
2022/09/14 11:10:44;;;;;;;3.23;2.30;;;;;;;19.77;51.52;99537.09;1749020;82;21102;-76
2022/09/14 11:13:42;;;;;;;3.63;2.23;;;;;;;19.81;51.55;99532.02;1740040;80;21057;-76
2022/09/14 11:16:39;;;;;;;5.93;3.30;;;;;;;19.90;51.38;99535.36;1767095;80;20989;-74
2022/09/14 11:19:34;;;;;;;3.90;3.07;;;;;;;19.81;51.02;99526.60;1772089;80;21017;-75
2022/09/14 11:22:41;;;;;;;4.17;2.70;;;;;;;19.70;51.57;99525.48;1758440;80;21022;-75
2022/09/14 11:25:18;;;;;;;4.10;3.20;;;;;;;19.71;52.32;99527.63;1745675;80;21162;-75
2022/09/14 11:28:02;;;;;;;5.10;2.97;;;;;;;19.68;52.15;99521.00;1756188;80;21022;-75
2022/09/14 11:30:38;;;;;;;4.17;2.83;;;;;;;19.69;52.04;99514.44;1708334;82;20962;-74
2022/09/14 11:33:16;;;;;;;3.93;3.10;;;;;;;19.76;52.32;99515.99;1698854;83;21158;-74
2022/09/14 11:35:51;;;;;;;5.63;3.67;;;;;;;19.86;51.96;99506.59;1752344;79;20986;-75
2022/09/14 11:38:21;;;;;;;6.40;3.37;;;;;;;19.91;52.02;99511.20;1719911;82;21671;-76
2022/09/14 11:40:56;;;;;;;4.53;3.00;;;;;;;19.99;51.89;99505.98;1757847;80;21075;-71
2022/09/14 11:43:31;;;;;;;6.13;3.17;;;;;;;20.04;52.05;99509.23;1769687;80;21027;-72
2022/09/14 11:46:09;;;;;;;4.47;2.60;;;;;;;20.11;52.17;99510.00;1753792;80;21868;-73
2022/09/14 11:49:01;;;;;;;4.80;3.07;;;;;;;20.11;52.18;99505.93;1706732;82;21011;-72
2022/09/14 11:51:38;;;;;;;4.97;3.83;;;;;;;20.14;52.52;99504.67;1688274;82;21586;-71
2022/09/14 11:54:15;;;;;;;6.77;3.83;;;;;;;20.10;53.22;99508.40;1701973;82;20986;-72
2022/09/14 11:56:42;;;;;;;6.10;4.20;;;;;;;19.99;53.90;99509.47;1709747;82;21625;-71
2022/09/14 11:59:15;;;;;;;4.80;3.50;;;;;;;19.82;54.68;99501.08;1712019;82;21075;-71
2022/09/14 12:01:41;;;;;;;5.33;3.90;;;;;;;19.70;55.32;99507.88;1762426;80;21157;-72
2022/09/14 12:04:15;;;;;;;6.93;4.07;;;;;;;19.62;55.72;99512.86;1755704;80;21112;-72